Etusivu
METAR-TAF:

METAR-TAF

Lentoasemat :

Al Hoceima, Marokko

Leveyspiiri: 35-11N, Pituuspiiri: 003-51W, korkeus merenpinnasta: 27 m

Tämänhetkinen sää

Tämä raportti tehtiin 21 minuuttia sitten, kello 19.00 UTC
Tuuli 4 kn etelästä/kaakosta
Lämpötila 13°C
Kosteus 77%
Ilmanpaine 1018 hPa
Näkyvyys 10 km tai enemmän
Hajanaisia pilviä 3000 ft:n korkeudessa
Hajanaisia pilviä 10000 ft:n korkeudessa

METAR: GMTA 241900Z 16004KT 9999 SCT030 SCT100 13/09 Q1018 NOSIG

Aika: 20:21 (19:21 UTC)

Sääennuste

Tämä raportti tehtiin 2 tuntia ja 21 minuuttia sitten, kello 17.00 UTC
Ennuste voimassa 24. päivästä klo 18 UTC - 25. päivään klo 24 UTC
Tuuli 2 kn eri suunnista
Näkyvyys 10 km tai enemmän
Hajanaisia pilviä 2000 ft:n korkeudessa

TAF: GMTA 241700Z 2418/2524 VRB02KT 9999 SCT020

Säähavainnot ja -ennusteet yli 4000 lentoasemalta (METAR- ja TAF-raportit).

Käytössä olevat sääasemat on merkitty karttaan keltaisilla ja punaisilla pisteillä.

Aseta hiiri pisteen päälle nähdäksesi sääaseman nimen.

Klikkaa sitten nähdäksesi säähavainnot ja -ennusteet.

Kartan vaihtaminen: klikkaa mustalla rastilla varustettuja vihreitä pisteitä, niin voit zoomata sisään; viivalla varustettua vihreää pistettä, niin voit zoomata ulos tai vihreitä nuolia, niin pääset viereisille kartoille.


METAR-TAF: